sensor_id;sensor_type;location;lat;lon;timestamp;P1;P2;P0
44933;PMS3003;30667;43.614;1.442;2023-06-24T00:02:11;12.60;11.80;7.80
44933;PMS3003;30667;43.614;1.442;2023-06-24T00:04:36;12.50;12.25;7.00
44933;PMS3003;30667;43.614;1.442;2023-06-24T00:07:02;12.25;11.25;7.00
44933;PMS3003;30667;43.614;1.442;2023-06-24T00:09:27;13.00;12.25;8.00
44933;PMS3003;30667;43.614;1.442;2023-06-24T00:11:54;14.20;12.20;7.80
44933;PMS3003;30667;43.614;1.442;2023-06-24T00:14:20;13.80;12.60;7.40
44933;PMS3003;30667;43.614;1.442;2023-06-24T00:16:47;14.40;12.80;8.00
44933;PMS3003;30667;43.614;1.442;2023-06-24T00:19:16;14.40;14.20;8.60
44933;PMS3003;30667;43.614;1.442;2023-06-24T00:21:44;13.80;13.20;7.80
44933;PMS3003;30667;43.614;1.442;2023-06-24T00:24:10;15.50;13.00;8.00
44933;PMS3003;30667;43.614;1.442;2023-06-24T00:26:35;13.00;12.25;7.75
44933;PMS3003;30667;43.614;1.442;2023-06-24T00:29:01;14.75;13.00;9.00
44933;PMS3003;30667;43.614;1.442;2023-06-24T00:31:26;16.00;14.00;9.25
44933;PMS3003;30667;43.614;1.442;2023-06-24T00:33:51;15.75;14.75;9.00
44933;PMS3003;30667;43.614;1.442;2023-06-24T00:36:17;15.40;13.40;8.80
44933;PMS3003;30667;43.614;1.442;2023-06-24T00:38:43;13.50;13.00;8.50
44933;PMS3003;30667;43.614;1.442;2023-06-24T00:41:09;14.80;13.00;8.80
44933;PMS3003;30667;43.614;1.442;2023-06-24T00:43:35;13.60;12.00;6.80
44933;PMS3003;30667;43.614;1.442;2023-06-24T00:46:01;14.00;12.75;8.50
44933;PMS3003;30667;43.614;1.442;2023-06-24T00:48:27;14.60;14.20;9.20
44933;PMS3003;30667;43.614;1.442;2023-06-24T00:50:52;14.75;12.50;8.00
44933;PMS3003;30667;43.614;1.442;2023-06-24T00:53:18;15.75;13.75;8.00
44933;PMS3003;30667;43.614;1.442;2023-06-24T00:55:44;13.00;13.00;7.60
44933;PMS3003;30667;43.614;1.442;2023-06-24T00:58:10;14.20;12.00;8.00
44933;PMS3003;30667;43.614;1.442;2023-06-24T01:00:41;13.40;12.60;7.60
44933;PMS3003;30667;43.614;1.442;2023-06-24T01:03:08;13.20;12.60;8.00
44933;PMS3003;30667;43.614;1.442;2023-06-24T01:05:35;12.60;11.60;7.20
44933;PMS3003;30667;43.614;1.442;2023-06-24T01:08:01;12.20;12.00;7.00
44933;PMS3003;30667;43.614;1.442;2023-06-24T01:10:27;12.40;12.40;8.00
44933;PMS3003;30667;43.614;1.442;2023-06-24T01:12:52;14.75;12.00;8.00
44933;PMS3003;30667;43.614;1.442;2023-06-24T01:15:18;15.25;13.00;9.00
44933;PMS3003;30667;43.614;1.442;2023-06-24T01:26:22;13.80;13.00;8.00
44933;PMS3003;30667;43.614;1.442;2023-06-24T01:37:12;12.60;12.00;7.40
44933;PMS3003;30667;43.614;1.442;2023-06-24T01:39:46;14.20;13.00;8.00
44933;PMS3003;30667;43.614;1.442;2023-06-24T01:42:14;15.00;14.60;8.80
44933;PMS3003;30667;43.614;1.442;2023-06-24T01:44:42;12.80;11.60;8.20
44933;PMS3003;30667;43.614;1.442;2023-06-24T01:47:10;14.00;13.20;8.20
44933;PMS3003;30667;43.614;1.442;2023-06-24T01:49:38;13.00;13.00;7.20
44933;PMS3003;30667;43.614;1.442;2023-06-24T01:52:07;12.20;11.40;7.60
44933;PMS3003;30667;43.614;1.442;2023-06-24T01:54:34;14.20;13.20;8.40
44933;PMS3003;30667;43.614;1.442;2023-06-24T01:57:02;15.00;13.80;9.40
44933;PMS3003;30667;43.614;1.442;2023-06-24T01:59:30;13.60;12.40;8.80
44933;PMS3003;30667;43.614;1.442;2023-06-24T02:01:58;13.80;13.00;8.40
44933;PMS3003;30667;43.614;1.442;2023-06-24T02:04:26;13.60;13.20;8.60
44933;PMS3003;30667;43.614;1.442;2023-06-24T02:07:00;13.60;13.20;8.60
44933;PMS3003;30667;43.614;1.442;2023-06-24T02:09:28;13.00;12.60;8.00
44933;PMS3003;30667;43.614;1.442;2023-06-24T02:11:59;15.40;14.00;9.80
44933;PMS3003;30667;43.614;1.442;2023-06-24T02:14:28;13.80;13.60;9.00
44933;PMS3003;30667;43.614;1.442;2023-06-24T02:16:55;12.80;12.20;8.40
44933;PMS3003;30667;43.614;1.442;2023-06-24T02:19:27;14.20;13.40;8.40
44933;PMS3003;30667;43.614;1.442;2023-06-24T02:21:58;15.60;13.60;9.00
44933;PMS3003;30667;43.614;1.442;2023-06-24T02:24:25;13.40;13.00;8.00
44933;PMS3003;30667;43.614;1.442;2023-06-24T02:26:53;14.00;14.00;8.40
44933;PMS3003;30667;43.614;1.442;2023-06-24T02:29:19;16.80;13.20;8.00
44933;PMS3003;30667;43.614;1.442;2023-06-24T02:31:46;14.60;12.80;8.20
44933;PMS3003;30667;43.614;1.442;2023-06-24T02:34:12;13.75;12.50;8.00
44933;PMS3003;30667;43.614;1.442;2023-06-24T02:36:37;14.25;13.00;8.75
44933;PMS3003;30667;43.614;1.442;2023-06-24T02:39:03;13.00;12.80;7.60
44933;PMS3003;30667;43.614;1.442;2023-06-24T02:41:29;14.25;13.50;8.50
44933;PMS3003;30667;43.614;1.442;2023-06-24T02:43:54;13.25;12.75;7.50
44933;PMS3003;30667;43.614;1.442;2023-06-24T02:46:20;12.50;11.50;7.50
44933;PMS3003;30667;43.614;1.442;2023-06-24T02:48:46;12.00;10.80;7.20
44933;PMS3003;30667;43.614;1.442;2023-06-24T02:51:14;14.20;13.80;8.00
44933;PMS3003;30667;43.614;1.442;2023-06-24T02:53:40;15.00;12.80;8.80
44933;PMS3003;30667;43.614;1.442;2023-06-24T02:56:06;14.00;13.00;8.00
44933;PMS3003;30667;43.614;1.442;2023-06-24T02:58:33;13.80;13.20;8.20
44933;PMS3003;30667;43.614;1.442;2023-06-24T03:01:03;14.80;14.00;8.20
44933;PMS3003;30667;43.614;1.442;2023-06-24T03:03:31;13.20;13.20;9.00
44933;PMS3003;30667;43.614;1.442;2023-06-24T03:05:57;14.60;14.20;9.20
44933;PMS3003;30667;43.614;1.442;2023-06-24T03:08:24;18.60;15.80;9.80
44933;PMS3003;30667;43.614;1.442;2023-06-24T03:10:59;16.00;14.40;10.00
44933;PMS3003;30667;43.614;1.442;2023-06-24T03:13:25;15.00;14.20;9.20
44933;PMS3003;30667;43.614;1.442;2023-06-24T03:15:51;16.00;15.00;10.00
44933;PMS3003;30667;43.614;1.442;2023-06-24T03:18:16;15.50;15.00;9.25
44933;PMS3003;30667;43.614;1.442;2023-06-24T03:20:43;14.00;13.00;9.40
44933;PMS3003;30667;43.614;1.442;2023-06-24T03:23:08;15.25;13.25;8.00
44933;PMS3003;30667;43.614;1.442;2023-06-24T03:25:34;16.00;14.00;9.00
44933;PMS3003;30667;43.614;1.442;2023-06-24T03:28:00;13.60;12.40;8.40
44933;PMS3003;30667;43.614;1.442;2023-06-24T03:30:28;13.40;12.40;8.00
44933;PMS3003;30667;43.614;1.442;2023-06-24T03:32:54;12.50;11.25;7.50
44933;PMS3003;30667;43.614;1.442;2023-06-24T03:35:19;13.50;12.50;8.00
44933;PMS3003;30667;43.614;1.442;2023-06-24T03:37:45;14.00;12.00;7.00
44933;PMS3003;30667;43.614;1.442;2023-06-24T03:40:10;15.00;13.00;7.00
44933;PMS3003;30667;43.614;1.442;2023-06-24T03:42:36;12.00;11.20;6.40
44933;PMS3003;30667;43.614;1.442;2023-06-24T03:45:02;11.75;11.00;7.25
44933;PMS3003;30667;43.614;1.442;2023-06-24T03:47:28;12.60;12.40;8.00
44933;PMS3003;30667;43.614;1.442;2023-06-24T03:49:54;13.75;12.25;7.00
44933;PMS3003;30667;43.614;1.442;2023-06-24T03:52:19;12.75;12.00;7.50
44933;PMS3003;30667;43.614;1.442;2023-06-24T03:54:45;13.25;12.00;7.00
44933;PMS3003;30667;43.614;1.442;2023-06-24T03:57:11;13.40;12.00;8.00
44933;PMS3003;30667;43.614;1.442;2023-06-24T03:59:37;12.00;11.40;7.00
44933;PMS3003;30667;43.614;1.442;2023-06-24T04:02:02;11.75;11.00;7.00
44933;PMS3003;30667;43.614;1.442;2023-06-24T04:04:28;11.75;11.00;7.25
44933;PMS3003;30667;43.614;1.442;2023-06-24T04:06:53;12.50;11.75;7.75
44933;PMS3003;30667;43.614;1.442;2023-06-24T04:09:19;13.25;12.00;7.00
44933;PMS3003;30667;43.614;1.442;2023-06-24T04:11:44;11.75;11.25;6.50
44933;PMS3003;30667;43.614;1.442;2023-06-24T04:14:09;12.75;11.50;6.50
44933;PMS3003;30667;43.614;1.442;2023-06-24T04:16:35;14.00;13.00;7.75
44933;PMS3003;30667;43.614;1.442;2023-06-24T04:19:01;12.80;12.00;7.60
44933;PMS3003;30667;43.614;1.442;2023-06-24T04:21:26;11.00;10.50;6.00
44933;PMS3003;30667;43.614;1.442;2023-06-24T04:23:52;12.75;12.25;7.00
44933;PMS3003;30667;43.614;1.442;2023-06-24T04:26:17;15.00;12.50;7.75
44933;PMS3003;30667;43.614;1.442;2023-06-24T04:28:42;11.50;10.25;6.75
44933;PMS3003;30667;43.614;1.442;2023-06-24T04:31:08;11.50;11.00;7.00
44933;PMS3003;30667;43.614;1.442;2023-06-24T04:33:33;11.50;10.00;7.00
44933;PMS3003;30667;43.614;1.442;2023-06-24T04:35:59;12.00;11.75;6.75
44933;PMS3003;30667;43.614;1.442;2023-06-24T04:38:25;12.00;11.60;7.80
44933;PMS3003;30667;43.614;1.442;2023-06-24T04:40:50;13.00;12.00;8.00
44933;PMS3003;30667;43.614;1.442;2023-06-24T04:43:15;13.50;11.75;7.00
44933;PMS3003;30667;43.614;1.442;2023-06-24T04:45:41;13.75;13.00;8.00
44933;PMS3003;30667;43.614;1.442;2023-06-24T04:48:06;11.25;10.75;7.00
44933;PMS3003;30667;43.614;1.442;2023-06-24T04:50:32;12.25;12.00;7.00
44933;PMS3003;30667;43.614;1.442;2023-06-24T04:52:57;12.00;11.00;7.50
44933;PMS3003;30667;43.614;1.442;2023-06-24T04:55:23;11.25;10.00;7.00
44933;PMS3003;30667;43.614;1.442;2023-06-24T04:57:49;10.20;10.20;6.20
44933;PMS3003;30667;43.614;1.442;2023-06-24T05:00:14;10.25;9.75;6.00
44933;PMS3003;30667;43.614;1.442;2023-06-24T05:02:40;11.00;10.00;6.00
44933;PMS3003;30667;43.614;1.442;2023-06-24T05:05:05;11.00;9.50;6.50
44933;PMS3003;30667;43.614;1.442;2023-06-24T05:07:31;13.25;11.50;7.00
44933;PMS3003;30667;43.614;1.442;2023-06-24T05:09:56;11.25;11.00;6.00
44933;PMS3003;30667;43.614;1.442;2023-06-24T05:12:22;11.75;11.00;7.00
44933;PMS3003;30667;43.614;1.442;2023-06-24T05:14:50;11.00;10.50;7.00
44933;PMS3003;30667;43.614;1.442;2023-06-24T05:17:19;11.00;10.00;6.00
44933;PMS3003;30667;43.614;1.442;2023-06-24T05:19:45;12.00;10.80;6.40
44933;PMS3003;30667;43.614;1.442;2023-06-24T05:22:10;12.75;11.00;5.75
44933;PMS3003;30667;43.614;1.442;2023-06-24T05:24:36;11.50;10.50;6.75
44933;PMS3003;30667;43.614;1.442;2023-06-24T05:27:04;12.50;11.75;7.00
44933;PMS3003;30667;43.614;1.442;2023-06-24T05:29:31;12.00;11.60;7.00
44933;PMS3003;30667;43.614;1.442;2023-06-24T05:31:57;10.40;9.60;6.20
44933;PMS3003;30667;43.614;1.442;2023-06-24T05:34:23;11.00;10.40;6.00
44933;PMS3003;30667;43.614;1.442;2023-06-24T05:36:48;10.75;9.75;5.75
44933;PMS3003;30667;43.614;1.442;2023-06-24T05:39:14;9.50;9.50;6.50
44933;PMS3003;30667;43.614;1.442;2023-06-24T05:41:39;11.00;9.50;6.00
44933;PMS3003;30667;43.614;1.442;2023-06-24T05:44:07;12.00;10.50;6.00
44933;PMS3003;30667;43.614;1.442;2023-06-24T05:46:34;10.20;9.80;6.00
44933;PMS3003;30667;43.614;1.442;2023-06-24T05:49:00;11.25;10.00;5.75
44933;PMS3003;30667;43.614;1.442;2023-06-24T05:51:25;13.25;11.00;6.00
44933;PMS3003;30667;43.614;1.442;2023-06-24T05:53:51;13.00;10.00;6.75
44933;PMS3003;30667;43.614;1.442;2023-06-24T05:56:17;12.50;11.00;7.00
44933;PMS3003;30667;43.614;1.442;2023-06-24T05:58:43;11.20;10.40;6.00
44933;PMS3003;30667;43.614;1.442;2023-06-24T06:01:09;10.50;9.50;6.50
44933;PMS3003;30667;43.614;1.442;2023-06-24T06:03:34;11.00;10.80;6.60
44933;PMS3003;30667;43.614;1.442;2023-06-24T06:06:00;11.50;10.75;7.00
44933;PMS3003;30667;43.614;1.442;2023-06-24T06:08:25;9.75;9.50;7.00
44933;PMS3003;30667;43.614;1.442;2023-06-24T06:10:51;11.00;10.50;6.00
44933;PMS3003;30667;43.614;1.442;2023-06-24T06:13:16;11.00;10.50;5.25
44933;PMS3003;30667;43.614;1.442;2023-06-24T06:15:41;11.25;11.25;6.00
44933;PMS3003;30667;43.614;1.442;2023-06-24T06:18:07;11.25;11.00;6.25
44933;PMS3003;30667;43.614;1.442;2023-06-24T06:20:32;9.50;8.50;5.50
44933;PMS3003;30667;43.614;1.442;2023-06-24T06:22:58;11.50;10.75;5.00
44933;PMS3003;30667;43.614;1.442;2023-06-24T06:25:23;9.25;9.25;5.00
44933;PMS3003;30667;43.614;1.442;2023-06-24T06:27:48;9.25;9.00;6.00
44933;PMS3003;30667;43.614;1.442;2023-06-24T06:30:14;9.25;9.25;6.00
44933;PMS3003;30667;43.614;1.442;2023-06-24T06:32:40;11.75;11.25;6.00
44933;PMS3003;30667;43.614;1.442;2023-06-24T06:35:06;12.00;11.00;7.00
44933;PMS3003;30667;43.614;1.442;2023-06-24T06:37:33;10.20;9.60;5.80
44933;PMS3003;30667;43.614;1.442;2023-06-24T06:39:58;10.50;10.00;6.00
44933;PMS3003;30667;43.614;1.442;2023-06-24T06:42:23;10.50;9.50;6.25
44933;PMS3003;30667;43.614;1.442;2023-06-24T06:44:49;10.25;9.50;6.00
44933;PMS3003;30667;43.614;1.442;2023-06-24T06:47:14;11.50;10.75;6.00
44933;PMS3003;30667;43.614;1.442;2023-06-24T06:49:39;10.25;10.00;6.00
44933;PMS3003;30667;43.614;1.442;2023-06-24T06:52:05;11.00;9.25;6.00
44933;PMS3003;30667;43.614;1.442;2023-06-24T06:54:31;10.00;9.00;6.00
44933;PMS3003;30667;43.614;1.442;2023-06-24T06:57:00;10.25;9.75;6.00
44933;PMS3003;30667;43.614;1.442;2023-06-24T06:59:29;10.00;10.00;6.20
44933;PMS3003;30667;43.614;1.442;2023-06-24T07:01:55;11.20;10.20;6.00
44933;PMS3003;30667;43.614;1.442;2023-06-24T07:04:20;10.75;10.75;6.50
44933;PMS3003;30667;43.614;1.442;2023-06-24T07:06:45;10.75;10.75;6.00
44933;PMS3003;30667;43.614;1.442;2023-06-24T07:09:11;11.25;9.00;5.25
44933;PMS3003;30667;43.614;1.442;2023-06-24T07:11:36;11.75;10.75;7.00
44933;PMS3003;30667;43.614;1.442;2023-06-24T07:14:02;10.50;9.50;6.00
44933;PMS3003;30667;43.614;1.442;2023-06-24T07:16:27;10.00;10.00;6.00
44933;PMS3003;30667;43.614;1.442;2023-06-24T07:18:52;8.75;8.75;5.75
44933;PMS3003;30667;43.614;1.442;2023-06-24T07:21:18;11.00;10.75;6.25
44933;PMS3003;30667;43.614;1.442;2023-06-24T07:23:43;10.75;10.00;6.00
44933;PMS3003;30667;43.614;1.442;2023-06-24T07:26:09;9.75;9.00;5.25
44933;PMS3003;30667;43.614;1.442;2023-06-24T07:28:34;11.75;11.00;6.75
44933;PMS3003;30667;43.614;1.442;2023-06-24T07:31:00;11.50;10.50;6.00
44933;PMS3003;30667;43.614;1.442;2023-06-24T07:33:25;10.00;9.50;5.00
44933;PMS3003;30667;43.614;1.442;2023-06-24T07:35:50;10.00;10.00;6.00
44933;PMS3003;30667;43.614;1.442;2023-06-24T07:38:16;11.00;10.75;6.00
44933;PMS3003;30667;43.614;1.442;2023-06-24T07:40:41;10.00;9.75;5.75
44933;PMS3003;30667;43.614;1.442;2023-06-24T07:43:07;10.00;10.00;5.50
44933;PMS3003;30667;43.614;1.442;2023-06-24T07:45:32;9.75;9.75;6.00
44933;PMS3003;30667;43.614;1.442;2023-06-24T07:47:58;12.25;12.00;7.00
44933;PMS3003;30667;43.614;1.442;2023-06-24T07:50:23;12.00;11.00;6.00
44933;PMS3003;30667;43.614;1.442;2023-06-24T07:52:49;11.00;10.50;5.00
44933;PMS3003;30667;43.614;1.442;2023-06-24T07:55:14;12.00;11.00;6.00
44933;PMS3003;30667;43.614;1.442;2023-06-24T07:57:40;9.25;9.25;6.00
44933;PMS3003;30667;43.614;1.442;2023-06-24T08:00:10;10.20;10.20;5.60
44933;PMS3003;30667;43.614;1.442;2023-06-24T08:02:36;10.40;10.00;5.80
44933;PMS3003;30667;43.614;1.442;2023-06-24T08:05:01;11.00;10.50;6.75
44933;PMS3003;30667;43.614;1.442;2023-06-24T08:07:27;10.50;10.25;5.00
44933;PMS3003;30667;43.614;1.442;2023-06-24T08:09:52;10.75;9.25;5.75
44933;PMS3003;30667;43.614;1.442;2023-06-24T08:12:17;10.50;10.00;6.00
44933;PMS3003;30667;43.614;1.442;2023-06-24T08:14:43;11.50;11.00;6.00
44933;PMS3003;30667;43.614;1.442;2023-06-24T08:17:08;10.25;10.00;5.75
44933;PMS3003;30667;43.614;1.442;2023-06-24T08:19:34;9.25;8.50;5.75
44933;PMS3003;30667;43.614;1.442;2023-06-24T08:22:01;8.00;8.00;5.00
44933;PMS3003;30667;43.614;1.442;2023-06-24T08:24:30;12.40;9.40;6.00
44933;PMS3003;30667;43.614;1.442;2023-06-24T08:26:56;10.20;8.80;5.20
44933;PMS3003;30667;43.614;1.442;2023-06-24T08:29:22;8.50;8.50;5.00
44933;PMS3003;30667;43.614;1.442;2023-06-24T08:31:47;9.00;8.00;4.50
44933;PMS3003;30667;43.614;1.442;2023-06-24T08:34:13;11.00;10.75;6.00
44933;PMS3003;30667;43.614;1.442;2023-06-24T08:36:38;11.25;10.00;5.00
44933;PMS3003;30667;43.614;1.442;2023-06-24T08:39:04;9.75;9.25;5.00
44933;PMS3003;30667;43.614;1.442;2023-06-24T08:41:29;10.25;9.00;4.75
44933;PMS3003;30667;43.614;1.442;2023-06-24T08:43:55;8.00;7.00;4.00
44933;PMS3003;30667;43.614;1.442;2023-06-24T08:46:20;9.00;8.00;5.00
44933;PMS3003;30667;43.614;1.442;2023-06-24T08:48:47;8.00;7.00;4.00
44933;PMS3003;30667;43.614;1.442;2023-06-24T08:51:15;8.20;8.00;4.00
44933;PMS3003;30667;43.614;1.442;2023-06-24T08:53:48;9.80;9.00;5.00
44933;PMS3003;30667;43.614;1.442;2023-06-24T08:56:14;9.00;8.00;4.00
44933;PMS3003;30667;43.614;1.442;2023-06-24T08:58:40;8.00;7.00;3.50
44933;PMS3003;30667;43.614;1.442;2023-06-24T09:01:06;7.00;7.00;4.00
44933;PMS3003;30667;43.614;1.442;2023-06-24T09:03:32;8.00;8.00;4.40
44933;PMS3003;30667;43.614;1.442;2023-06-24T09:05:57;7.75;7.75;5.00
44933;PMS3003;30667;43.614;1.442;2023-06-24T09:08:23;8.25;8.00;4.75
44933;PMS3003;30667;43.614;1.442;2023-06-24T09:10:54;8.50;7.75;4.00
44933;PMS3003;30667;43.614;1.442;2023-06-24T09:13:35;8.40;7.40;4.00
44933;PMS3003;30667;43.614;1.442;2023-06-24T09:16:08;8.40;8.00;4.00
44933;PMS3003;30667;43.614;1.442;2023-06-24T09:18:37;8.60;8.00;4.00
44933;PMS3003;30667;43.614;1.442;2023-06-24T09:21:03;9.00;9.00;5.00
44933;PMS3003;30667;43.614;1.442;2023-06-24T09:23:28;8.75;8.00;4.50
44933;PMS3003;30667;43.614;1.442;2023-06-24T09:25:55;9.50;9.00;6.00
44933;PMS3003;30667;43.614;1.442;2023-06-24T09:28:25;10.20;8.60;6.00
44933;PMS3003;30667;43.614;1.442;2023-06-24T09:31:07;11.40;9.60;5.60
44933;PMS3003;30667;43.614;1.442;2023-06-24T09:33:35;10.60;9.60;5.00
44933;PMS3003;30667;43.614;1.442;2023-06-24T09:36:04;9.00;8.25;5.00
44933;PMS3003;30667;43.614;1.442;2023-06-24T09:38:34;11.00;9.00;5.00
44933;PMS3003;30667;43.614;1.442;2023-06-24T09:41:03;9.00;7.80;4.00
44933;PMS3003;30667;43.614;1.442;2023-06-24T09:43:34;9.60;8.80;4.40
44933;PMS3003;30667;43.614;1.442;2023-06-24T09:46:01;8.80;8.00;4.20
44933;PMS3003;30667;43.614;1.442;2023-06-24T09:48:27;7.60;7.40;4.20
44933;PMS3003;30667;43.614;1.442;2023-06-24T09:50:54;9.00;8.25;4.75
44933;PMS3003;30667;43.614;1.442;2023-06-24T09:53:23;7.20;6.80;3.40
44933;PMS3003;30667;43.614;1.442;2023-06-24T09:55:50;8.60;8.60;3.80
44933;PMS3003;30667;43.614;1.442;2023-06-24T09:58:16;9.00;8.00;3.80
44933;PMS3003;30667;43.614;1.442;2023-06-24T10:00:44;8.00;8.00;4.00
44933;PMS3003;30667;43.614;1.442;2023-06-24T10:03:09;7.75;7.00;4.00
44933;PMS3003;30667;43.614;1.442;2023-06-24T10:05:36;10.00;8.40;4.80
44933;PMS3003;30667;43.614;1.442;2023-06-24T10:08:02;8.25;7.00;4.00
44933;PMS3003;30667;43.614;1.442;2023-06-24T10:10:30;10.00;9.00;3.60
44933;PMS3003;30667;43.614;1.442;2023-06-24T10:12:56;6.75;6.75;3.00
44933;PMS3003;30667;43.614;1.442;2023-06-24T10:15:22;6.80;6.80;3.80
44933;PMS3003;30667;43.614;1.442;2023-06-24T10:17:48;7.60;6.80;3.80
44933;PMS3003;30667;43.614;1.442;2023-06-24T10:20:23;6.60;6.60;3.60
44933;PMS3003;30667;43.614;1.442;2023-06-24T10:22:50;8.40;7.20;4.40
44933;PMS3003;30667;43.614;1.442;2023-06-24T10:25:16;9.00;8.00;4.00
44933;PMS3003;30667;43.614;1.442;2023-06-24T10:27:43;7.80;7.40;4.00
44933;PMS3003;30667;43.614;1.442;2023-06-24T10:30:16;6.80;6.80;3.40
44933;PMS3003;30667;43.614;1.442;2023-06-24T10:32:44;7.60;7.00;4.20
44933;PMS3003;30667;43.614;1.442;2023-06-24T10:35:22;9.00;8.00;4.00
44933;PMS3003;30667;43.614;1.442;2023-06-24T10:38:00;7.20;7.20;4.00
44933;PMS3003;30667;43.614;1.442;2023-06-24T10:40:36;7.60;7.40;3.80
44933;PMS3003;30667;43.614;1.442;2023-06-24T10:43:40;7.00;6.60;3.20
44933;PMS3003;30667;43.614;1.442;2023-06-24T10:46:06;10.00;8.00;4.00
44933;PMS3003;30667;43.614;1.442;2023-06-24T10:48:40;7.00;7.00;4.00
44933;PMS3003;30667;43.614;1.442;2023-06-24T10:51:06;7.00;7.00;4.00
44933;PMS3003;30667;43.614;1.442;2023-06-24T10:53:32;8.50;8.00;4.25
44933;PMS3003;30667;43.614;1.442;2023-06-24T10:55:57;7.00;7.00;3.75
44933;PMS3003;30667;43.614;1.442;2023-06-24T10:58:23;8.00;8.00;4.20
44933;PMS3003;30667;43.614;1.442;2023-06-24T11:00:49;6.25;6.25;3.75
44933;PMS3003;30667;43.614;1.442;2023-06-24T11:03:15;8.50;8.00;3.75
44933;PMS3003;30667;43.614;1.442;2023-06-24T11:05:42;7.00;6.20;2.80
44933;PMS3003;30667;43.614;1.442;2023-06-24T11:08:11;8.60;6.80;3.60
44933;PMS3003;30667;43.614;1.442;2023-06-24T11:10:43;8.80;7.00;3.20
44933;PMS3003;30667;43.614;1.442;2023-06-24T11:13:13;7.80;7.20;3.80
44933;PMS3003;30667;43.614;1.442;2023-06-24T11:15:47;8.80;8.80;3.80
44933;PMS3003;30667;43.614;1.442;2023-06-24T11:18:13;7.80;7.40;3.80
44933;PMS3003;30667;43.614;1.442;2023-06-24T11:20:38;7.75;7.75;4.75
44933;PMS3003;30667;43.614;1.442;2023-06-24T11:23:08;7.80;7.60;3.20
44933;PMS3003;30667;43.614;1.442;2023-06-24T11:25:41;6.80;6.80;3.80
44933;PMS3003;30667;43.614;1.442;2023-06-24T11:28:17;7.60;7.00;3.80
44933;PMS3003;30667;43.614;1.442;2023-06-24T11:30:43;7.40;6.60;3.40
44933;PMS3003;30667;43.614;1.442;2023-06-24T11:33:09;7.25;6.25;3.50
44933;PMS3003;30667;43.614;1.442;2023-06-24T11:35:34;7.75;6.75;4.00
44933;PMS3003;30667;43.614;1.442;2023-06-24T11:38:01;7.00;6.80;3.80
44933;PMS3003;30667;43.614;1.442;2023-06-24T11:40:27;8.75;8.25;3.75
44933;PMS3003;30667;43.614;1.442;2023-06-24T11:42:52;8.00;7.50;3.50
44933;PMS3003;30667;43.614;1.442;2023-06-24T11:45:19;6.50;6.00;3.75
44933;PMS3003;30667;43.614;1.442;2023-06-24T11:47:46;6.40;6.40;2.80
44933;PMS3003;30667;43.614;1.442;2023-06-24T11:50:11;6.25;6.00;3.25
44933;PMS3003;30667;43.614;1.442;2023-06-24T11:55:21;5.60;5.60;3.20
44933;PMS3003;30667;43.614;1.442;2023-06-24T11:57:52;10.00;7.20;4.00
44933;PMS3003;30667;43.614;1.442;2023-06-24T12:00:29;6.20;6.20;2.80
44933;PMS3003;30667;43.614;1.442;2023-06-24T12:02:57;8.00;7.60;3.60
44933;PMS3003;30667;43.614;1.442;2023-06-24T12:05:33;7.00;7.00;3.00
44933;PMS3003;30667;43.614;1.442;2023-06-24T12:10:30;6.80;6.00;3.80
44933;PMS3003;30667;43.614;1.442;2023-06-24T12:13:00;6.20;5.20;2.60
44933;PMS3003;30667;43.614;1.442;2023-06-24T12:15:27;5.80;5.80;3.20
44933;PMS3003;30667;43.614;1.442;2023-06-24T12:17:52;7.60;6.60;3.60
44933;PMS3003;30667;43.614;1.442;2023-06-24T12:20:18;8.00;7.00;4.00
44933;PMS3003;30667;43.614;1.442;2023-06-24T12:22:44;7.00;6.50;4.25
44933;PMS3003;30667;43.614;1.442;2023-06-24T12:25:10;7.20;6.20;3.80
44933;PMS3003;30667;43.614;1.442;2023-06-24T12:27:36;8.25;8.00;4.00
44933;PMS3003;30667;43.614;1.442;2023-06-24T12:30:03;7.00;7.00;3.80
44933;PMS3003;30667;43.614;1.442;2023-06-24T12:32:29;8.00;7.60;4.20
44933;PMS3003;30667;43.614;1.442;2023-06-24T12:34:54;9.00;8.50;5.00
44933;PMS3003;30667;43.614;1.442;2023-06-24T12:37:21;6.00;6.00;4.00
44933;PMS3003;30667;43.614;1.442;2023-06-24T12:39:47;8.00;8.00;4.00
44933;PMS3003;30667;43.614;1.442;2023-06-24T12:42:13;11.75;9.00;4.75
44933;PMS3003;30667;43.614;1.442;2023-06-24T12:44:38;7.00;7.00;3.75
44933;PMS3003;30667;43.614;1.442;2023-06-24T12:47:04;7.25;6.50;3.00
44933;PMS3003;30667;43.614;1.442;2023-06-24T12:49:29;7.50;7.50;4.00
44933;PMS3003;30667;43.614;1.442;2023-06-24T12:51:55;7.75;7.75;4.00
44933;PMS3003;30667;43.614;1.442;2023-06-24T12:54:20;8.00;7.00;3.25
44933;PMS3003;30667;43.614;1.442;2023-06-24T12:56:45;6.25;6.25;3.00
44933;PMS3003;30667;43.614;1.442;2023-06-24T12:59:11;7.00;7.00;3.25
44933;PMS3003;30667;43.614;1.442;2023-06-24T13:01:36;7.25;7.25;4.00
44933;PMS3003;30667;43.614;1.442;2023-06-24T13:04:02;8.75;8.00;4.25
44933;PMS3003;30667;43.614;1.442;2023-06-24T13:06:27;8.00;7.75;4.00
44933;PMS3003;30667;43.614;1.442;2023-06-24T13:08:52;6.75;6.75;3.50
44933;PMS3003;30667;43.614;1.442;2023-06-24T13:11:18;7.00;6.00;3.50
44933;PMS3003;30667;43.614;1.442;2023-06-24T13:13:43;9.25;9.25;4.75
44933;PMS3003;30667;43.614;1.442;2023-06-24T13:16:09;7.25;7.00;4.25
44933;PMS3003;30667;43.614;1.442;2023-06-24T13:18:34;7.50;7.25;4.00
44933;PMS3003;30667;43.614;1.442;2023-06-24T13:21:00;8.50;7.75;4.00
44933;PMS3003;30667;43.614;1.442;2023-06-24T13:23:25;8.00;7.50;4.00
44933;PMS3003;30667;43.614;1.442;2023-06-24T13:25:50;7.00;7.00;4.00
44933;PMS3003;30667;43.614;1.442;2023-06-24T13:28:16;7.00;7.00;3.00
44933;PMS3003;30667;43.614;1.442;2023-06-24T13:30:41;7.50;7.00;4.00
44933;PMS3003;30667;43.614;1.442;2023-06-24T13:33:07;6.50;6.00;3.25
44933;PMS3003;30667;43.614;1.442;2023-06-24T13:35:33;8.80;7.40;3.80
44933;PMS3003;30667;43.614;1.442;2023-06-24T13:37:58;6.00;5.75;3.00
44933;PMS3003;30667;43.614;1.442;2023-06-24T13:40:24;5.50;5.50;2.75
44933;PMS3003;30667;43.614;1.442;2023-06-24T13:42:49;5.25;5.00;3.00
44933;PMS3003;30667;43.614;1.442;2023-06-24T13:45:15;5.75;5.75;3.00
44933;PMS3003;30667;43.614;1.442;2023-06-24T13:47:40;7.25;7.00;3.50
44933;PMS3003;30667;43.614;1.442;2023-06-24T13:50:06;8.00;7.00;4.00
44933;PMS3003;30667;43.614;1.442;2023-06-24T13:52:32;7.00;5.80;2.80
44933;PMS3003;30667;43.614;1.442;2023-06-24T13:54:58;6.75;6.75;3.00
44933;PMS3003;30667;43.614;1.442;2023-06-24T13:57:23;5.25;5.00;2.00
44933;PMS3003;30667;43.614;1.442;2023-06-24T13:59:48;6.25;5.25;2.00
44933;PMS3003;30667;43.614;1.442;2023-06-24T14:02:14;8.00;7.00;4.00
44933;PMS3003;30667;43.614;1.442;2023-06-24T14:04:39;5.50;5.50;3.00
44933;PMS3003;30667;43.614;1.442;2023-06-24T14:09:38;8.80;7.20;3.20
44933;PMS3003;30667;43.614;1.442;2023-06-24T14:12:05;6.60;5.40;2.40
44933;PMS3003;30667;43.614;1.442;2023-06-24T14:14:31;6.00;6.00;2.20
44933;PMS3003;30667;43.614;1.442;2023-06-24T14:16:57;10.00;6.50;3.75
44933;PMS3003;30667;43.614;1.442;2023-06-24T14:19:22;6.00;5.00;2.00
44933;PMS3003;30667;43.614;1.442;2023-06-24T14:21:47;5.50;5.50;3.00
44933;PMS3003;30667;43.614;1.442;2023-06-24T14:24:13;6.25;5.00;2.00
44933;PMS3003;30667;43.614;1.442;2023-06-24T14:26:38;5.00;5.00;2.50
44933;PMS3003;30667;43.614;1.442;2023-06-24T14:29:04;7.00;6.50;3.50
44933;PMS3003;30667;43.614;1.442;2023-06-24T14:31:30;6.00;6.00;2.25